sensor_id;sensor_type;location;lat;lon;timestamp;pressure;altitude;pressure_sealevel;temperature;humidity
72685;BME280;61365;52.162;4.500;2023-07-20T00:01:28;101493.03;;;18.33;71.21
72685;BME280;61365;52.162;4.500;2023-07-20T00:03:55;101489.69;;;18.24;70.54
72685;BME280;61365;52.162;4.500;2023-07-20T00:06:21;101488.84;;;18.22;71.10
72685;BME280;61365;52.162;4.500;2023-07-20T00:08:49;101484.69;;;18.10;71.78
72685;BME280;61365;52.162;4.500;2023-07-20T00:11:15;101487.34;;;18.09;71.91
72685;BME280;61365;52.162;4.500;2023-07-20T00:13:41;101480.59;;;17.92;72.81
72685;BME280;61365;52.162;4.500;2023-07-20T00:16:08;101476.06;;;17.99;71.80
72685;BME280;61365;52.162;4.500;2023-07-20T00:18:34;101485.97;;;17.89;72.58
72685;BME280;61365;52.162;4.500;2023-07-20T00:21:00;101484.88;;;18.01;71.27
72685;BME280;61365;52.162;4.500;2023-07-20T00:23:27;101485.31;;;17.79;72.49
72685;BME280;61365;52.162;4.500;2023-07-20T00:25:53;101485.91;;;17.92;71.75
72685;BME280;61365;52.162;4.500;2023-07-20T00:28:20;101488.97;;;17.74;72.63
72685;BME280;61365;52.162;4.500;2023-07-20T00:30:46;101500.59;;;17.66;73.20
72685;BME280;61365;52.162;4.500;2023-07-20T00:33:12;101496.16;;;17.68;73.32
72685;BME280;61365;52.162;4.500;2023-07-20T00:35:39;101489.34;;;17.97;72.21
72685;BME280;61365;52.162;4.500;2023-07-20T00:38:05;101486.94;;;17.86;71.93
72685;BME280;61365;52.162;4.500;2023-07-20T00:40:37;101482.66;;;17.79;72.47
72685;BME280;61365;52.162;4.500;2023-07-20T00:43:04;101486.44;;;17.66;72.61
72685;BME280;61365;52.162;4.500;2023-07-20T00:45:31;101476.31;;;17.86;71.99
72685;BME280;61365;52.162;4.500;2023-07-20T00:47:59;101484.78;;;17.62;72.95
72685;BME280;61365;52.162;4.500;2023-07-20T00:50:27;101475.16;;;17.56;73.27
72685;BME280;61365;52.162;4.500;2023-07-20T00:52:54;101468.19;;;17.52;73.13
72685;BME280;61365;52.162;4.500;2023-07-20T00:55:22;101470.94;;;17.46;73.68
72685;BME280;61365;52.162;4.500;2023-07-20T00:57:49;101473.56;;;17.47;73.29
72685;BME280;61365;52.162;4.500;2023-07-20T01:00:17;101478.00;;;17.45;73.28
72685;BME280;61365;52.162;4.500;2023-07-20T01:02:43;101477.06;;;17.49;72.91
72685;BME280;61365;52.162;4.500;2023-07-20T01:05:10;101476.13;;;17.52;73.17
72685;BME280;61365;52.162;4.500;2023-07-20T01:07:53;101477.16;;;17.45;73.47
72685;BME280;61365;52.162;4.500;2023-07-20T01:13:05;101484.28;;;17.43;73.31
72685;BME280;61365;52.162;4.500;2023-07-20T01:15:35;101473.66;;;17.41;73.26
72685;BME280;61365;52.162;4.500;2023-07-20T01:18:01;101485.28;;;17.37;73.59
72685;BME280;61365;52.162;4.500;2023-07-20T01:20:30;101483.69;;;17.26;73.59
72685;BME280;61365;52.162;4.500;2023-07-20T01:28:39;101488.25;;;17.18;74.16
72685;BME280;61365;52.162;4.500;2023-07-20T01:31:24;101489.94;;;17.24;74.14
72685;BME280;61365;52.162;4.500;2023-07-20T01:33:52;101497.69;;;17.35;73.54
72685;BME280;61365;52.162;4.500;2023-07-20T01:36:22;101496.63;;;17.44;73.13
72685;BME280;61365;52.162;4.500;2023-07-20T01:38:51;101499.22;;;17.47;72.96
72685;BME280;61365;52.162;4.500;2023-07-20T01:41:18;101501.66;;;17.58;73.03
72685;BME280;61365;52.162;4.500;2023-07-20T01:43:44;101494.56;;;17.60;72.46
72685;BME280;61365;52.162;4.500;2023-07-20T01:46:10;101492.91;;;17.52;72.48
72685;BME280;61365;52.162;4.500;2023-07-20T01:48:36;101488.34;;;17.61;72.15
72685;BME280;61365;52.162;4.500;2023-07-20T01:51:02;101487.50;;;17.59;72.04
72685;BME280;61365;52.162;4.500;2023-07-20T01:53:29;101494.56;;;17.60;71.63
72685;BME280;61365;52.162;4.500;2023-07-20T01:55:56;101497.28;;;17.55;71.96
72685;BME280;61365;52.162;4.500;2023-07-20T01:58:23;101485.47;;;17.71;71.59
72685;BME280;61365;52.162;4.500;2023-07-20T02:00:49;101489.03;;;17.70;71.66
72685;BME280;61365;52.162;4.500;2023-07-20T02:03:15;101489.03;;;17.70;71.60
72685;BME280;61365;52.162;4.500;2023-07-20T02:05:44;101499.88;;;17.58;72.53
72685;BME280;61365;52.162;4.500;2023-07-20T02:08:10;101498.97;;;17.61;72.23
72685;BME280;61365;52.162;4.500;2023-07-20T02:10:37;101502.38;;;17.66;72.26
72685;BME280;61365;52.162;4.500;2023-07-20T02:13:03;101492.81;;;17.59;71.77
72685;BME280;61365;52.162;4.500;2023-07-20T02:15:29;101489.38;;;17.53;72.26
72685;BME280;61365;52.162;4.500;2023-07-20T02:17:55;101493.78;;;17.53;72.24
72685;BME280;61365;52.162;4.500;2023-07-20T02:20:21;101487.72;;;17.46;72.02
72685;BME280;61365;52.162;4.500;2023-07-20T02:22:47;101491.34;;;17.42;72.06
72685;BME280;61365;52.162;4.500;2023-07-20T02:25:14;101488.88;;;17.31;72.64
72685;BME280;61365;52.162;4.500;2023-07-20T02:27:40;101488.88;;;17.33;72.71
72685;BME280;61365;52.162;4.500;2023-07-20T02:30:06;101485.31;;;17.34;73.17
72685;BME280;61365;52.162;4.500;2023-07-20T02:32:33;101493.91;;;17.47;72.44
72685;BME280;61365;52.162;4.500;2023-07-20T02:35:00;101488.78;;;17.37;72.29
72685;BME280;61365;52.162;4.500;2023-07-20T02:37:26;101492.13;;;17.47;72.21
72685;BME280;61365;52.162;4.500;2023-07-20T02:39:52;101496.78;;;17.36;72.30
72685;BME280;61365;52.162;4.500;2023-07-20T02:42:18;101495.88;;;17.37;72.07
72685;BME280;61365;52.162;4.500;2023-07-20T02:44:45;101497.88;;;17.24;72.65
72685;BME280;61365;52.162;4.500;2023-07-20T02:47:11;101491.84;;;17.16;72.91
72685;BME280;61365;52.162;4.500;2023-07-20T02:49:37;101490.19;;;17.08;73.19
72685;BME280;61365;52.162;4.500;2023-07-20T02:52:03;101484.06;;;17.05;73.63
72685;BME280;61365;52.162;4.500;2023-07-20T02:54:30;101487.50;;;17.11;73.08
72685;BME280;61365;52.162;4.500;2023-07-20T02:56:56;101487.69;;;17.02;73.28
72685;BME280;61365;52.162;4.500;2023-07-20T02:59:22;101496.56;;;16.98;73.43
72685;BME280;61365;52.162;4.500;2023-07-20T03:01:48;101499.25;;;16.93;73.46
72685;BME280;61365;52.162;4.500;2023-07-20T03:04:15;101494.00;;;16.90;73.68
72685;BME280;61365;52.162;4.500;2023-07-20T03:06:42;101503.69;;;16.93;73.65
72685;BME280;61365;52.162;4.500;2023-07-20T03:09:08;101500.13;;;16.95;73.32
72685;BME280;61365;52.162;4.500;2023-07-20T03:11:35;101502.84;;;16.91;73.73
72685;BME280;61365;52.162;4.500;2023-07-20T03:14:01;101509.03;;;16.90;73.65
72685;BME280;61365;52.162;4.500;2023-07-20T03:16:27;101512.69;;;16.84;73.73
72685;BME280;61365;52.162;4.500;2023-07-20T03:18:53;101513.53;;;16.85;73.66
72685;BME280;61365;52.162;4.500;2023-07-20T03:21:19;101505.63;;;16.83;73.77
72685;BME280;61365;52.162;4.500;2023-07-20T03:23:45;101513.59;;;16.83;73.79
72685;BME280;61365;52.162;4.500;2023-07-20T03:26:11;101507.50;;;16.76;74.11
72685;BME280;61365;52.162;4.500;2023-07-20T03:28:38;101516.28;;;16.80;74.61
72685;BME280;61365;52.162;4.500;2023-07-20T03:31:04;101510.97;;;16.80;74.99
72685;BME280;61365;52.162;4.500;2023-07-20T03:33:31;101519.69;;;16.88;74.17
72685;BME280;61365;52.162;4.500;2023-07-20T03:35:58;101518.66;;;16.99;73.62
72685;BME280;61365;52.162;4.500;2023-07-20T03:38:24;101520.31;;;17.06;73.83
72685;BME280;61365;52.162;4.500;2023-07-20T03:40:52;101522.09;;;17.04;74.37
72685;BME280;61365;52.162;4.500;2023-07-20T03:43:20;101524.66;;;17.10;74.21
72685;BME280;61365;52.162;4.500;2023-07-20T03:45:47;101521.06;;;17.14;74.15
72685;BME280;61365;52.162;4.500;2023-07-20T03:48:15;101522.56;;;17.28;73.33
72685;BME280;61365;52.162;4.500;2023-07-20T03:50:43;101527.03;;;17.25;73.69
72685;BME280;61365;52.162;4.500;2023-07-20T03:53:11;101521.72;;;17.27;73.35
72685;BME280;61365;52.162;4.500;2023-07-20T03:55:38;101531.53;;;17.22;73.41
72685;BME280;61365;52.162;4.500;2023-07-20T03:58:06;101533.06;;;17.34;72.98
72685;BME280;61365;52.162;4.500;2023-07-20T04:00:33;101534.56;;;17.49;71.90
72685;BME280;61365;52.162;4.500;2023-07-20T04:03:00;101532.63;;;17.59;71.54
72685;BME280;61365;52.162;4.500;2023-07-20T04:05:26;101532.63;;;17.57;71.77
72685;BME280;61365;52.162;4.500;2023-07-20T04:07:53;101538.13;;;17.48;72.37
72685;BME280;61365;52.162;4.500;2023-07-20T04:10:19;101530.72;;;17.65;72.44
72685;BME280;61365;52.162;4.500;2023-07-20T04:12:45;101533.31;;;17.68;71.63
72685;BME280;61365;52.162;4.500;2023-07-20T04:15:15;101535.53;;;17.90;71.15
72685;BME280;61365;52.162;4.500;2023-07-20T04:17:41;101529.84;;;18.09;70.08
72685;BME280;61365;52.162;4.500;2023-07-20T04:20:07;101527.16;;;18.87;67.98
72685;BME280;61365;52.162;4.500;2023-07-20T04:22:34;101528.47;;;19.07;66.67
72685;BME280;61365;52.162;4.500;2023-07-20T04:25:00;101527.41;;;19.14;65.58
72685;BME280;61365;52.162;4.500;2023-07-20T04:27:26;101531.13;;;19.09;65.00
72685;BME280;61365;52.162;4.500;2023-07-20T04:29:53;101529.56;;;19.34;65.37
72685;BME280;61365;52.162;4.500;2023-07-20T04:32:19;101538.25;;;19.73;63.99
72685;BME280;61365;52.162;4.500;2023-07-20T04:34:45;101532.81;;;20.39;61.27
72685;BME280;61365;52.162;4.500;2023-07-20T04:37:11;101534.44;;;20.72;60.09
72685;BME280;61365;52.162;4.500;2023-07-20T04:39:37;101538.06;;;21.24;58.60
72685;BME280;61365;52.162;4.500;2023-07-20T04:42:03;101537.28;;;21.21;58.05
72685;BME280;61365;52.162;4.500;2023-07-20T04:44:30;101545.25;;;20.95;58.78
72685;BME280;61365;52.162;4.500;2023-07-20T04:46:56;101549.47;;;20.74;59.26
72685;BME280;61365;52.162;4.500;2023-07-20T04:49:22;101541.03;;;21.15;57.17
72685;BME280;61365;52.162;4.500;2023-07-20T04:51:48;101548.09;;;20.91;58.55
72685;BME280;61365;52.162;4.500;2023-07-20T04:54:14;101538.50;;;21.63;53.97
72685;BME280;61365;52.162;4.500;2023-07-20T04:56:42;101541.81;;;21.44;53.77
72685;BME280;61365;52.162;4.500;2023-07-20T04:59:08;101543.56;;;21.70;52.91
72685;BME280;61365;52.162;4.500;2023-07-20T05:01:34;101550.31;;;21.05;54.38
72685;BME280;61365;52.162;4.500;2023-07-20T05:04:00;101540.91;;;21.45;53.12
72685;BME280;61365;52.162;4.500;2023-07-20T05:06:26;101544.94;;;21.57;53.38
72685;BME280;61365;52.162;4.500;2023-07-20T05:08:52;101542.78;;;21.68;51.03
72685;BME280;61365;52.162;4.500;2023-07-20T05:11:18;101541.97;;;21.66;50.76
72685;BME280;61365;52.162;4.500;2023-07-20T05:13:45;101544.59;;;21.15;52.28
72685;BME280;61365;52.162;4.500;2023-07-20T05:16:11;101542.13;;;21.09;52.41
72685;BME280;61365;52.162;4.500;2023-07-20T05:18:37;101550.13;;;21.09;51.76
72685;BME280;61365;52.162;4.500;2023-07-20T05:21:05;101548.50;;;21.05;51.86
72685;BME280;61365;52.162;4.500;2023-07-20T05:23:31;101543.03;;;21.35;51.31
72685;BME280;61365;52.162;4.500;2023-07-20T05:25:58;101547.34;;;21.65;50.73
72685;BME280;61365;52.162;4.500;2023-07-20T05:28:25;101541.09;;;21.89;49.76
72685;BME280;61365;52.162;4.500;2023-07-20T05:30:52;101536.09;;;21.55;50.07
72685;BME280;61365;52.162;4.500;2023-07-20T05:33:19;101545.34;;;21.44;49.79
72685;BME280;61365;52.162;4.500;2023-07-20T05:35:46;101539.00;;;22.22;48.39
72685;BME280;61365;52.162;4.500;2023-07-20T05:38:12;101544.09;;;22.52;46.54
72685;BME280;61365;52.162;4.500;2023-07-20T05:40:40;101550.63;;;21.97;47.61
72685;BME280;61365;52.162;4.500;2023-07-20T05:43:07;101549.47;;;22.04;48.75
72685;BME280;61365;52.162;4.500;2023-07-20T05:45:33;101549.50;;;22.26;47.87
72685;BME280;61365;52.162;4.500;2023-07-20T05:47:59;101545.91;;;21.02;50.06
72685;BME280;61365;52.162;4.500;2023-07-20T05:50:25;101546.66;;;21.58;48.73
72685;BME280;61365;52.162;4.500;2023-07-20T05:52:54;101543.56;;;21.45;50.31
72685;BME280;61365;52.162;4.500;2023-07-20T05:55:20;101543.72;;;21.91;48.92
72685;BME280;61365;52.162;4.500;2023-07-20T05:57:46;101548.69;;;22.70;46.57
72685;BME280;61365;52.162;4.500;2023-07-20T06:00:13;101546.69;;;22.53;48.30
72685;BME280;61365;52.162;4.500;2023-07-20T06:02:40;101550.91;;;22.37;47.99
72685;BME280;61365;52.162;4.500;2023-07-20T06:05:06;101542.69;;;22.19;49.13
72685;BME280;61365;52.162;4.500;2023-07-20T06:07:36;101537.84;;;22.95;47.17
72685;BME280;61365;52.162;4.500;2023-07-20T06:10:03;101543.59;;;22.86;47.79
72685;BME280;61365;52.162;4.500;2023-07-20T06:12:29;101544.59;;;23.27;46.86
72685;BME280;61365;52.162;4.500;2023-07-20T06:14:55;101545.72;;;23.42;46.98
72685;BME280;61365;52.162;4.500;2023-07-20T06:17:22;101540.69;;;23.94;44.88
72685;BME280;61365;52.162;4.500;2023-07-20T06:19:48;101544.16;;;23.77;44.90
72685;BME280;61365;52.162;4.500;2023-07-20T06:22:14;101542.50;;;23.75;45.63
72685;BME280;61365;52.162;4.500;2023-07-20T06:24:40;101546.59;;;24.22;45.14
72685;BME280;61365;52.162;4.500;2023-07-20T06:27:06;101545.78;;;24.39;43.37
72685;BME280;61365;52.162;4.500;2023-07-20T06:29:32;101554.00;;;23.97;44.57
72685;BME280;61365;52.162;4.500;2023-07-20T06:31:58;101550.09;;;23.84;44.71
72685;BME280;61365;52.162;4.500;2023-07-20T06:34:24;101549.94;;;24.27;44.45
72685;BME280;61365;52.162;4.500;2023-07-20T06:36:50;101548.16;;;25.36;41.90
72685;BME280;61365;52.162;4.500;2023-07-20T06:39:16;101560.81;;;23.84;44.65
72685;BME280;61365;52.162;4.500;2023-07-20T06:41:42;101558.84;;;24.08;45.03
72685;BME280;61365;52.162;4.500;2023-07-20T06:44:08;101559.94;;;23.83;44.90
72685;BME280;61365;52.162;4.500;2023-07-20T06:46:34;101552.41;;;24.32;44.19
72685;BME280;61365;52.162;4.500;2023-07-20T06:49:00;101559.88;;;24.06;44.82
72685;BME280;61365;52.162;4.500;2023-07-20T06:51:27;101554.53;;;24.62;42.58
72685;BME280;61365;52.162;4.500;2023-07-20T06:53:53;101554.63;;;24.22;44.28
72685;BME280;61365;52.162;4.500;2023-07-20T06:56:19;101553.03;;;24.93;41.76
72685;BME280;61365;52.162;4.500;2023-07-20T06:58:45;101551.78;;;24.82;42.50
72685;BME280;61365;52.162;4.500;2023-07-20T07:01:11;101548.19;;;25.54;40.62
72685;BME280;61365;52.162;4.500;2023-07-20T07:03:37;101560.84;;;24.80;42.37
72685;BME280;61365;52.162;4.500;2023-07-20T07:06:03;101561.38;;;22.87;46.20
72685;BME280;61365;52.162;4.500;2023-07-20T07:08:29;101563.75;;;22.95;46.73
72685;BME280;61365;52.162;4.500;2023-07-20T07:10:55;101557.50;;;23.37;45.50
72685;BME280;61365;52.162;4.500;2023-07-20T07:13:21;101562.66;;;23.63;45.43
72685;BME280;61365;52.162;4.500;2023-07-20T07:15:47;101563.97;;;24.70;43.02
72685;BME280;61365;52.162;4.500;2023-07-20T07:18:14;101555.19;;;24.67;42.09
72685;BME280;61365;52.162;4.500;2023-07-20T07:20:40;101568.22;;;24.19;42.93
72685;BME280;61365;52.162;4.500;2023-07-20T07:23:06;101566.25;;;24.41;42.22
72685;BME280;61365;52.162;4.500;2023-07-20T07:25:32;101558.78;;;24.48;43.55
72685;BME280;61365;52.162;4.500;2023-07-20T07:27:58;101556.22;;;25.01;43.76
72685;BME280;61365;52.162;4.500;2023-07-20T07:30:24;101556.06;;;26.24;41.28
72685;BME280;61365;52.162;4.500;2023-07-20T07:32:50;101560.94;;;26.33;40.92
72685;BME280;61365;52.162;4.500;2023-07-20T07:35:16;101558.50;;;25.95;39.45
72685;BME280;61365;52.162;4.500;2023-07-20T07:37:42;101567.91;;;25.00;43.69
72685;BME280;61365;52.162;4.500;2023-07-20T07:40:09;101571.75;;;24.57;44.25
72685;BME280;61365;52.162;4.500;2023-07-20T07:42:36;101564.13;;;24.67;44.34
72685;BME280;61365;52.162;4.500;2023-07-20T07:45:03;101565.03;;;23.90;45.54
72685;BME280;61365;52.162;4.500;2023-07-20T07:47:29;101569.47;;;23.91;46.16
72685;BME280;61365;52.162;4.500;2023-07-20T07:49:56;101567.97;;;24.04;45.00
72685;BME280;61365;52.162;4.500;2023-07-20T07:52:22;101567.41;;;23.97;46.40
72685;BME280;61365;52.162;4.500;2023-07-20T07:54:48;101572.03;;;24.13;44.30
72685;BME280;61365;52.162;4.500;2023-07-20T07:57:14;101572.63;;;23.80;45.19
72685;BME280;61365;52.162;4.500;2023-07-20T07:59:41;101568.56;;;23.50;44.77
72685;BME280;61365;52.162;4.500;2023-07-20T08:02:07;101572.13;;;23.30;46.84
72685;BME280;61365;52.162;4.500;2023-07-20T08:04:33;101576.50;;;22.66;47.28
72685;BME280;61365;52.162;4.500;2023-07-20T08:06:59;101580.19;;;22.63;46.57
72685;BME280;61365;52.162;4.500;2023-07-20T08:09:25;101581.53;;;22.52;47.99
72685;BME280;61365;52.162;4.500;2023-07-20T08:11:51;101578.28;;;23.32;44.56
72685;BME280;61365;52.162;4.500;2023-07-20T08:14:17;101580.81;;;23.35;46.31
72685;BME280;61365;52.162;4.500;2023-07-20T08:16:44;101579.78;;;24.77;42.66
72685;BME280;61365;52.162;4.500;2023-07-20T08:19:11;101576.91;;;24.99;41.20
72685;BME280;61365;52.162;4.500;2023-07-20T08:21:37;101571.09;;;25.08;42.49
72685;BME280;61365;52.162;4.500;2023-07-20T08:24:03;101572.09;;;25.41;39.69
72685;BME280;61365;52.162;4.500;2023-07-20T08:26:30;101575.97;;;25.35;40.23
72685;BME280;61365;52.162;4.500;2023-07-20T08:28:56;101566.81;;;25.57;39.70
72685;BME280;61365;52.162;4.500;2023-07-20T08:31:22;101569.53;;;25.90;41.63
72685;BME280;61365;52.162;4.500;2023-07-20T08:33:48;101564.75;;;26.45;41.16
72685;BME280;61365;52.162;4.500;2023-07-20T08:36:15;101571.94;;;26.93;40.70
72685;BME280;61365;52.162;4.500;2023-07-20T08:38:41;101570.81;;;26.49;37.79
72685;BME280;61365;52.162;4.500;2023-07-20T08:41:08;101573.22;;;26.53;38.41
72685;BME280;61365;52.162;4.500;2023-07-20T08:43:34;101570.53;;;27.16;37.46
72685;BME280;61365;52.162;4.500;2023-07-20T08:46:04;101575.97;;;27.31;36.42
72685;BME280;61365;52.162;4.500;2023-07-20T08:48:30;101571.06;;;26.60;35.20
72685;BME280;61365;52.162;4.500;2023-07-20T08:50:56;101571.31;;;25.90;37.62
72685;BME280;61365;52.162;4.500;2023-07-20T08:53:25;101564.97;;;26.25;37.13
72685;BME280;61365;52.162;4.500;2023-07-20T08:55:53;101572.72;;;26.31;36.19
72685;BME280;61365;52.162;4.500;2023-07-20T08:58:20;101565.97;;;26.06;36.95
72685;BME280;61365;52.162;4.500;2023-07-20T09:00:49;101565.56;;;25.98;37.73
72685;BME280;61365;52.162;4.500;2023-07-20T09:03:16;101573.72;;;26.92;37.12
72685;BME280;61365;52.162;4.500;2023-07-20T09:05:44;101570.53;;;25.37;39.42
72685;BME280;61365;52.162;4.500;2023-07-20T09:08:10;101566.03;;;25.88;39.25
72685;BME280;61365;52.162;4.500;2023-07-20T09:10:36;101567.50;;;26.44;38.11
72685;BME280;61365;52.162;4.500;2023-07-20T09:13:02;101562.13;;;26.44;37.28
72685;BME280;61365;52.162;4.500;2023-07-20T09:15:29;101571.66;;;26.49;37.19
72685;BME280;61365;52.162;4.500;2023-07-20T09:17:56;101565.44;;;26.33;36.53
72685;BME280;61365;52.162;4.500;2023-07-20T09:20:22;101558.41;;;25.63;37.54
72685;BME280;61365;52.162;4.500;2023-07-20T09:22:48;101566.09;;;25.53;38.72
72685;BME280;61365;52.162;4.500;2023-07-20T09:25:16;101566.19;;;25.85;41.26
72685;BME280;61365;52.162;4.500;2023-07-20T09:27:47;101560.19;;;27.24;37.22
72685;BME280;61365;52.162;4.500;2023-07-20T09:30:17;101564.69;;;27.54;37.17
72685;BME280;61365;52.162;4.500;2023-07-20T09:32:44;101564.13;;;28.22;36.09
72685;BME280;61365;52.162;4.500;2023-07-20T09:35:17;101562.59;;;26.98;34.45
72685;BME280;61365;52.162;4.500;2023-07-20T09:40:27;101566.84;;;26.06;39.46
72685;BME280;61365;52.162;4.500;2023-07-20T09:42:53;101567.53;;;25.60;37.98
72685;BME280;61365;52.162;4.500;2023-07-20T09:45:29;101566.44;;;25.47;40.06
72685;BME280;61365;52.162;4.500;2023-07-20T09:48:05;101564.25;;;25.36;39.14
72685;BME280;61365;52.162;4.500;2023-07-20T09:50:33;101565.41;;;25.50;36.45
72685;BME280;61365;52.162;4.500;2023-07-20T09:53:00;101565.56;;;25.29;39.68
72685;BME280;61365;52.162;4.500;2023-07-20T09:55:29;101564.88;;;25.76;39.51
72685;BME280;61365;52.162;4.500;2023-07-20T09:57:56;101557.84;;;25.74;37.59
72685;BME280;61365;52.162;4.500;2023-07-20T10:00:22;101554.75;;;25.82;37.55
72685;BME280;61365;52.162;4.500;2023-07-20T10:02:48;101557.78;;;26.57;35.76
72685;BME280;61365;52.162;4.500;2023-07-20T10:05:17;101549.09;;;26.20;36.47
72685;BME280;61365;52.162;4.500;2023-07-20T10:07:48;101561.88;;;25.83;37.13
72685;BME280;61365;52.162;4.500;2023-07-20T10:10:16;101544.44;;;25.56;38.33
72685;BME280;61365;52.162;4.500;2023-07-20T10:12:44;101559.34;;;25.46;37.33
72685;BME280;61365;52.162;4.500;2023-07-20T10:20:30;101566.06;;;24.83;40.71
72685;BME280;61365;52.162;4.500;2023-07-20T10:22:58;101571.94;;;25.26;42.43
72685;BME280;61365;52.162;4.500;2023-07-20T10:25:26;101567.50;;;24.90;43.85
72685;BME280;61365;52.162;4.500;2023-07-20T10:27:54;101574.88;;;25.04;39.90
72685;BME280;61365;52.162;4.500;2023-07-20T10:30:22;101562.25;;;25.59;38.14
72685;BME280;61365;52.162;4.500;2023-07-20T10:32:50;101562.31;;;25.40;38.38
72685;BME280;61365;52.162;4.500;2023-07-20T10:35:18;101565.63;;;25.27;41.91
72685;BME280;61365;52.162;4.500;2023-07-20T10:37:54;101559.97;;;26.01;40.49
72685;BME280;61365;52.162;4.500;2023-07-20T10:40:32;101563.78;;;25.81;37.70
72685;BME280;61365;52.162;4.500;2023-07-20T10:43:00;101561.31;;;26.10;37.90
72685;BME280;61365;52.162;4.500;2023-07-20T10:53:48;101559.50;;;25.43;38.89
72685;BME280;61365;52.162;4.500;2023-07-20T10:56:19;101550.19;;;25.66;39.48
72685;BME280;61365;52.162;4.500;2023-07-20T10:58:46;101551.56;;;25.22;38.75
72685;BME280;61365;52.162;4.500;2023-07-20T11:01:18;101550.47;;;25.09;39.79
72685;BME280;61365;52.162;4.500;2023-07-20T11:03:48;101557.56;;;25.27;41.57
72685;BME280;61365;52.162;4.500;2023-07-20T11:11:46;101544.94;;;25.47;40.60
72685;BME280;61365;52.162;4.500;2023-07-20T11:14:23;101545.06;;;25.26;39.56
72685;BME280;61365;52.162;4.500;2023-07-20T11:16:54;101539.41;;;25.15;38.88
72685;BME280;61365;52.162;4.500;2023-07-20T11:19:22;101543.69;;;25.19;41.60
72685;BME280;61365;52.162;4.500;2023-07-20T11:21:51;101539.88;;;25.41;41.13
72685;BME280;61365;52.162;4.500;2023-07-20T11:24:17;101537.19;;;25.41;40.99
72685;BME280;61365;52.162;4.500;2023-07-20T11:26:44;101524.53;;;25.60;36.79
72685;BME280;61365;52.162;4.500;2023-07-20T11:29:11;101537.88;;;24.92;38.59
72685;BME280;61365;52.162;4.500;2023-07-20T11:31:41;101534.66;;;25.02;40.20
72685;BME280;61365;52.162;4.500;2023-07-20T11:34:12;101536.31;;;25.23;40.83
72685;BME280;61365;52.162;4.500;2023-07-20T11:36:43;101540.25;;;24.80;39.91
72685;BME280;61365;52.162;4.500;2023-07-20T11:39:14;101530.38;;;24.62;39.43
72685;BME280;61365;52.162;4.500;2023-07-20T11:41:48;101525.69;;;25.37;41.79
72685;BME280;61365;52.162;4.500;2023-07-20T11:44:16;101515.84;;;25.55;41.12
72685;BME280;61365;52.162;4.500;2023-07-20T11:46:43;101524.16;;;25.51;38.46
72685;BME280;61365;52.162;4.500;2023-07-20T11:49:12;101528.31;;;25.56;40.65
72685;BME280;61365;52.162;4.500;2023-07-20T11:51:39;101520.03;;;25.43;38.40
72685;BME280;61365;52.162;4.500;2023-07-20T11:54:06;101529.75;;;25.28;39.76
72685;BME280;61365;52.162;4.500;2023-07-20T11:56:35;101519.88;;;25.46;39.31
72685;BME280;61365;52.162;4.500;2023-07-20T11:59:01;101520.72;;;25.65;39.39
72685;BME280;61365;52.162;4.500;2023-07-20T12:01:28;101523.38;;;25.31;38.73
72685;BME280;61365;52.162;4.500;2023-07-20T12:04:01;101516.94;;;25.51;40.14
72685;BME280;61365;52.162;4.500;2023-07-20T12:06:29;101518.88;;;25.83;38.58
72685;BME280;61365;52.162;4.500;2023-07-20T12:08:56;101515.22;;;25.84;38.27
72685;BME280;61365;52.162;4.500;2023-07-20T12:11:36;101521.56;;;25.83;38.72
72685;BME280;61365;52.162;4.500;2023-07-20T12:14:03;101514.78;;;25.91;38.95
72685;BME280;61365;52.162;4.500;2023-07-20T12:16:32;101513.84;;;25.41;36.70
72685;BME280;61365;52.162;4.500;2023-07-20T12:19:09;101516.81;;;25.01;37.48
72685;BME280;61365;52.162;4.500;2023-07-20T12:21:37;101525.34;;;25.45;38.76
72685;BME280;61365;52.162;4.500;2023-07-20T12:24:05;101518.47;;;25.73;39.54
72685;BME280;61365;52.162;4.500;2023-07-20T12:26:33;101516.00;;;25.52;38.44
72685;BME280;61365;52.162;4.500;2023-07-20T12:28:59;101513.19;;;25.20;40.54
72685;BME280;61365;52.162;4.500;2023-07-20T12:31:26;101516.00;;;24.99;38.96
72685;BME280;61365;52.162;4.500;2023-07-20T12:33:53;101515.94;;;25.01;40.31
72685;BME280;61365;52.162;4.500;2023-07-20T12:36:22;101511.09;;;24.72;38.73
72685;BME280;61365;52.162;4.500;2023-07-20T12:38:49;101511.69;;;24.79;40.08
72685;BME280;61365;52.162;4.500;2023-07-20T12:41:15;101515.50;;;24.73;41.16
72685;BME280;61365;52.162;4.500;2023-07-20T12:43:42;101512.53;;;24.97;39.26
72685;BME280;61365;52.162;4.500;2023-07-20T12:46:10;101516.25;;;24.77;38.27
72685;BME280;61365;52.162;4.500;2023-07-20T12:48:37;101510.94;;;24.76;40.08
72685;BME280;61365;52.162;4.500;2023-07-20T12:51:06;101514.81;;;24.87;40.84
72685;BME280;61365;52.162;4.500;2023-07-20T12:53:32;101512.91;;;24.72;37.32
72685;BME280;61365;52.162;4.500;2023-07-20T12:55:59;101512.31;;;25.02;39.83
72685;BME280;61365;52.162;4.500;2023-07-20T12:58:25;101509.94;;;25.13;38.84
72685;BME280;61365;52.162;4.500;2023-07-20T13:00:51;101504.66;;;25.12;39.40
72685;BME280;61365;52.162;4.500;2023-07-20T13:03:18;101495.91;;;25.08;39.41
72685;BME280;61365;52.162;4.500;2023-07-20T13:05:45;101505.47;;;24.96;40.15
72685;BME280;61365;52.162;4.500;2023-07-20T13:08:12;101509.69;;;24.83;40.24
72685;BME280;61365;52.162;4.500;2023-07-20T13:10:38;101504.41;;;24.81;38.86
72685;BME280;61365;52.162;4.500;2023-07-20T13:13:04;101500.97;;;24.60;38.06
72685;BME280;61365;52.162;4.500;2023-07-20T13:15:32;101493.50;;;24.48;39.02
72685;BME280;61365;52.162;4.500;2023-07-20T13:17:59;101497.63;;;24.18;40.80
72685;BME280;61365;52.162;4.500;2023-07-20T13:20:25;101493.94;;;24.57;41.63